.
WxDataArchive / Data Records for 2012-04-15
2012-04-14 April 2012 2012-04-16

Data Records for Sunday, 15 April 2012

Time	Temp	Chill	HIndex	Humid	Dewpt	 Wind 	HiWind	WindDir	Rain 	Barom 
-----	----	-----	------	-----	-----	------	------	-------	-----	----- 
00:00	56.9	56.9	56.9	94	55.2	0	0	---	0.00	29.919 
00:05	57.0	57.0	57.0	94	55.3	0	0	---	0.00	29.919 
00:10	57.2	57.2	57.2	94	55.5	0	0	---	0.00	29.919 
00:15	57.2	57.2	57.2	94	55.5	0	0	---	0.00	29.907 
00:20	57.3	57.3	57.3	94	55.6	0	0	---	0.00	29.907 
00:25	57.3	57.3	57.3	94	55.6	0	0	---	0.00	29.907 
00:30	57.3	57.3	57.3	94	55.6	0	0	---	0.00	29.904 
00:35	57.5	57.5	57.5	95	56.1	0	0	---	0.00	29.904 
00:40	57.5	57.5	57.5	95	56.1	0	0	---	0.00	29.904 
00:45	57.6	57.6	57.6	95	56.2	0	0	---	0.00	29.893 
00:50	57.6	57.6	57.6	95	56.2	0	0	---	0.00	29.893 
00:55	57.5	57.5	57.5	95	56.1	0	0	---	0.00	29.893 
01:00	57.5	57.5	57.5	95	56.1	0	0	---	0.00	29.894 
01:05	57.3	57.3	57.3	95	55.9	0	0	---	0.00	29.894 
01:10	57.2	57.2	57.2	95	55.8	0	0	---	0.00	29.894 
01:15	57.0	57.0	57.0	95	55.6	0	0	---	0.00	29.888 
01:20	57.2	57.2	57.2	95	55.8	0	0	---	0.00	29.888 
01:25	57.2	57.2	57.2	95	55.8	0	0	---	0.00	29.888 
01:30	57.2	57.2	57.2	95	55.8	0	0	---	0.00	29.887 
01:35	57.2	57.2	57.2	95	55.8	0	0	---	0.00	29.887 
01:40	57.3	57.3	57.3	95	55.9	0	0	---	0.00	29.887 
01:45	57.5	57.5	57.5	95	56.1	0	1	248	0.00	29.873 
01:50	57.6	57.6	57.6	95	56.2	0	1	248	0.00	29.873 
01:55	57.8	57.8	57.8	96	56.7	0	1	248	0.00	29.873 
02:00	58.0	58.0	58.0	95	56.6	0	0	---	0.00	29.861 
02:05	58.0	58.0	58.0	96	56.9	0	2	248	0.00	29.861 
02:10	58.0	58.0	58.0	96	56.9	0	1	248	0.00	29.861 
02:15	58.0	58.0	58.0	96	56.9	0	1	248	0.00	29.848 
02:20	58.1	58.1	58.1	96	57.0	1	2	248	0.00	29.848 
02:25	58.1	58.1	58.1	95	56.7	0	2	248	0.00	29.848 
02:30	58.0	58.0	58.0	95	56.6	1	3	248	0.00	29.843 
02:35	58.0	58.0	58.0	95	56.6	1	4	90	0.00	29.843 
02:40	58.0	58.0	58.0	95	56.6	0	3	90	0.00	29.843 
02:45	57.8	57.8	57.8	95	56.4	0	2	90	0.00	29.836 
02:50	57.8	57.8	57.8	95	56.4	1	3	90	0.00	29.836 
02:55	57.8	57.8	57.8	95	56.4	0	3	90	0.00	29.836 
03:00	57.8	57.8	57.8	95	56.4	0	2	90	0.00	29.832 
03:05	57.8	57.8	57.8	95	56.4	0	2	90	0.00	29.832 
03:10	57.8	57.8	57.8	95	56.4	0	1	90	0.00	29.832 
03:15	57.8	57.8	57.8	95	56.4	0	2	90	0.00	29.828 
03:20	57.8	57.8	57.8	95	56.4	0	1	90	0.00	29.828 
03:25	57.8	57.8	57.8	94	56.1	0	0	---	0.00	29.828 
03:30	57.8	57.8	57.8	94	56.1	0	2	90	0.00	29.825 
03:35	57.8	57.8	57.8	94	56.1	0	1	90	0.00	29.825 
03:40	57.8	57.8	57.8	94	56.1	0	2	90	0.00	29.825 
03:45	57.8	57.8	57.8	94	56.1	0	1	90	0.00	29.817 
03:50	58.0	58.0	58.0	93	56.0	0	1	90	0.00	29.817 
03:55	58.0	58.0	58.0	93	56.0	0	1	90	0.00	29.817 
04:00	58.0	58.0	58.0	93	56.0	0	1	90	0.00	29.810 
04:05	58.1	58.1	58.1	93	56.1	0	2	90	0.00	29.810 
04:10	58.1	58.1	58.1	92	55.8	0	1	90	0.00	29.810 
04:15	58.1	58.1	58.1	92	55.8	0	2	90	0.00	29.813 
04:20	58.3	58.3	58.3	92	56.0	0	1	90	0.00	29.813 
04:25	58.3	58.3	58.3	91	55.7	0	2	90	0.00	29.813 
04:30	58.3	58.3	58.3	91	55.7	0	2	90	0.00	29.813 
04:35	58.4	58.4	58.4	91	55.8	0	2	90	0.00	29.813 
04:40	58.4	58.4	58.4	90	55.5	0	1	90	0.00	29.813 
04:45	58.4	58.4	58.4	90	55.5	0	2	90	0.00	29.804 
04:50	58.4	58.4	58.4	89	55.2	0	2	90	0.00	29.804 
04:55	58.4	58.4	58.4	89	55.2	1	2	90	0.00	29.804 
05:00	58.6	58.6	58.6	88	55.1	0	2	90	0.00	29.789 
05:05	58.6	58.6	58.6	88	55.1	0	2	90	0.00	29.789 
05:10	58.7	58.7	58.7	88	55.2	0	2	90	0.00	29.789 
05:15	58.7	58.7	58.7	88	55.2	0	1	90	0.00	29.794 
05:20	58.7	58.7	58.7	87	54.8	0	2	90	0.00	29.794 
05:25	58.9	58.9	58.9	87	55.0	0	1	90	0.00	29.794 
05:30	58.9	58.9	58.9	87	55.0	0	1	90	0.00	29.795 
05:35	58.9	58.9	58.9	87	55.0	0	2	90	0.00	29.795 
05:40	59.0	59.0	59.0	86	54.8	0	2	90	0.00	29.795 
05:45	59.2	59.2	59.2	86	55.0	0	2	68	0.00	29.787 
05:50	59.3	59.3	59.3	85	54.8	0	3	68	0.00	29.787 
05:55	59.5	59.5	59.5	84	54.7	0	2	45	0.00	29.787 
06:00	59.5	59.5	59.5	84	54.7	0	3	45	0.00	29.787 
06:05	59.6	59.6	59.6	84	54.8	0	2	45	0.00	29.787 
06:10	59.8	59.8	59.8	83	54.6	0	2	45	0.00	29.787 
06:15	59.9	59.9	59.9	83	54.7	0	2	45	0.00	29.802 
06:20	59.9	59.9	59.9	83	54.7	0	2	45	0.00	29.802 
06:25	60.2	60.2	60.2	82	54.7	0	2	45	0.00	29.802 
06:30	60.4	60.4	60.4	81	54.5	0	3	248	0.00	29.805 
06:35	60.7	60.7	60.7	81	54.8	0	3	248	0.00	29.805 
06:40	60.9	60.9	60.9	81	55.0	0	2	248	0.00	29.805 
06:45	61.3	61.3	61.3	80	55.1	1	4	248	0.00	29.812 
06:50	61.6	61.6	61.6	79	55.0	0	3	248	0.00	29.812 
06:55	62.0	62.0	62.0	78	55.1	1	4	248	0.00	29.812 
07:00	62.3	62.3	62.3	78	55.3	1	3	270	0.00	29.812 
07:05	62.4	62.4	62.4	77	55.1	1	4	270	0.00	29.812 
07:10	62.4	62.4	62.4	77	55.1	0	2	248	0.00	29.812 
07:15	62.6	62.6	62.6	77	55.3	2	5	270	0.00	29.802 
07:20	62.9	62.9	62.9	76	55.2	1	7	270	0.00	29.802 
07:25	63.1	63.1	63.1	76	55.4	1	4	248	0.00	29.802 
07:30	63.1	63.1	63.1	76	55.4	1	5	248	0.00	29.815 
07:35	63.2	63.2	63.2	76	55.5	2	5	248	0.00	29.815 
07:40	63.2	63.2	63.2	76	55.5	1	4	248	0.00	29.815 
07:45	63.4	63.4	63.4	76	55.7	1	4	270	0.00	29.821 
07:50	63.4	63.4	63.4	76	55.7	2	5	270	0.00	29.821 
07:55	63.7	63.7	63.7	76	56.0	2	5	270	0.00	29.821 
08:00	63.9	63.9	63.9	75	55.8	2	9	248	0.00	29.827 
08:05	63.9	63.9	63.9	75	55.8	1	3	248	0.00	29.827 
08:10	64.0	64.0	64.0	76	56.3	1	5	248	0.00	29.827 
08:15	64.0	64.0	64.0	76	56.3	2	5	248	0.00	29.832 
08:20	64.2	64.2	64.2	75	56.1	1	4	248	0.00	29.832 
08:25	64.3	64.3	64.3	76	56.6	1	5	248	0.00	29.832 
08:30	64.5	64.5	64.5	76	56.8	2	5	270	0.00	29.840 
08:35	64.7	64.7	64.7	75	56.6	2	5	270	0.00	29.840 
08:40	64.8	64.8	64.8	75	56.7	1	4	270	0.00	29.840 
08:45	65.0	65.0	65.0	75	56.9	2	6	292	0.00	29.833 
08:50	65.2	65.2	65.2	75	57.1	2	5	225	0.00	29.833 
08:55	65.5	65.5	65.5	74	57.0	3	11	248	0.00	29.833 
09:00	65.6	65.6	65.6	73	56.7	3	6	248	0.00	29.830 
09:05	65.8	65.8	65.8	73	56.9	3	6	248	0.00	29.830 
09:10	66.0	66.0	66.0	74	57.5	2	5	270	0.00	29.830 
09:15	66.1	66.1	66.1	73	57.2	3	10	248	0.00	29.829 
09:20	66.3	66.3	66.3	73	57.4	2	6	248	0.00	29.829 
09:25	66.4	66.4	66.4	73	57.5	2	7	248	0.00	29.829 
09:30	66.6	66.6	66.6	73	57.7	1	5	248	0.00	29.830 
09:35	66.9	66.9	66.9	73	58.0	2	6	248	0.00	29.830 
09:40	67.1	67.1	67.1	72	57.8	3	11	248	0.00	29.830 
09:45	67.3	67.3	67.3	72	58.0	2	7	248	0.00	29.834 
09:50	67.4	67.4	67.4	71	57.7	3	7	248	0.00	29.834 
09:55	67.6	67.6	67.6	71	57.9	3	9	248	0.00	29.834 
10:00	67.8	67.8	67.8	71	58.0	2	9	248	0.00	29.835 
10:05	67.8	67.8	67.8	71	58.0	3	9	248	0.00	29.835 
10:10	67.9	67.9	67.9	71	58.1	3	9	248	0.00	29.835 
10:15	68.3	68.3	68.3	71	58.5	2	7	248	0.00	29.833 
10:20	68.6	68.6	68.6	70	58.4	2	9	248	0.00	29.833 
10:25	68.8	68.8	68.8	70	58.6	3	6	248	0.00	29.833 
10:30	69.3	69.3	69.3	70	59.1	3	7	248	0.00	29.830 
10:35	69.4	69.4	69.4	68	58.4	4	7	248	0.00	29.830 
10:40	69.4	69.4	69.4	68	58.4	3	9	248	0.00	29.830 
10:45	69.1	69.1	69.1	69	58.5	3	10	248	0.00	29.828 
10:50	69.1	69.1	69.1	69	58.5	3	10	248	0.00	29.828 
10:55	69.1	69.1	69.1	70	58.9	2	6	248	0.00	29.828 
11:00	69.3	69.3	69.3	70	59.1	2	7	248	0.00	29.826 
11:05	69.8	69.8	69.8	70	59.6	2	9	248	0.00	29.826 
11:10	70.3	70.3	70.3	68	59.2	3	10	248	0.00	29.826 
11:15	71.1	71.1	71.1	67	59.6	3	7	248	0.00	29.824 
11:20	71.6	71.6	71.6	67	60.0	3	6	248	0.00	29.824 
11:25	72.3	72.3	72.3	65	59.9	2	5	248	0.00	29.824 
11:30	72.8	72.8	72.8	65	60.3	2	6	248	0.00	29.819 
11:35	72.7	72.7	72.7	64	59.8	3	9	248	0.00	29.819 
11:40	72.8	72.8	72.8	63	59.5	3	9	248	0.00	29.819 
11:45	73.3	73.3	73.3	64	60.4	3	10	248	0.00	29.819 
11:50	73.9	73.9	73.9	61	59.6	4	10	248	0.00	29.819 
11:55	73.9	73.9	73.9	61	59.6	3	7	248	0.00	29.819 
12:00	74.0	74.0	74.0	60	59.2	2	7	248	0.00	29.820 
12:05	74.2	74.2	74.2	59	58.9	3	7	248	0.00	29.820 
12:10	74.4	74.4	74.4	58	58.6	3	7	248	0.00	29.820 
12:15	74.6	74.6	74.6	57	58.3	3	10	248	0.00	29.817 
12:20	74.7	74.7	74.7	58	58.9	3	7	270	0.00	29.817 
12:25	74.9	74.9	74.9	57	58.6	4	12	248	0.00	29.817 
12:30	75.1	75.1	77.6	56	58.3	4	11	248	0.00	29.807 
12:35	75.3	75.3	77.7	54	57.5	4	11	248	0.00	29.807 
12:40	75.4	75.4	77.7	55	58.1	3	10	248	0.00	29.807 
12:45	75.8	75.8	78.0	55	58.5	3	9	248	0.00	29.807 
12:50	76.1	76.1	78.1	52	57.2	4	10	248	0.00	29.807 
12:55	76.5	76.5	78.4	52	57.5	2	7	248	0.00	29.807 
13:00	76.8	76.8	78.5	49	56.2	5	13	248	0.00	29.814 
13:05	76.8	76.8	78.5	49	56.2	4	12	248	0.00	29.814 
13:10	76.8	76.8	78.5	50	56.7	4	11	248	0.00	29.814 
13:15	77.0	77.0	78.5	48	55.8	3	9	248	0.00	29.814 
13:20	77.0	77.0	78.6	49	56.4	2	7	248	0.00	29.814 
13:25	76.8	76.8	78.4	47	55.0	3	7	248	0.00	29.814 
13:30	76.8	76.8	78.4	47	55.0	3	9	248	0.00	29.815 
13:35	77.0	77.0	78.5	46	54.6	4	12	248	0.00	29.815 
13:40	77.2	77.2	78.5	45	54.2	5	11	248	0.00	29.815 
13:45	77.6	77.6	78.8	45	54.6	4	10	248	0.00	29.811 
13:50	77.7	77.7	78.8	44	54.0	4	9	248	0.00	29.811 
13:55	77.9	77.9	78.9	45	54.8	4	12	248	0.00	29.811 
14:00	78.3	78.3	79.2	46	55.8	1	4	248	0.00	29.809 
14:05	78.6	78.6	79.4	45	55.5	3	6	248	0.00	29.809 
14:10	78.6	78.6	79.4	46	56.1	3	7	248	0.00	29.809 
14:15	78.8	78.8	79.5	45	55.6	2	9	248	0.00	29.805 
14:20	79.2	79.2	79.6	43	54.7	3	13	248	0.00	29.805 
14:25	78.8	78.8	79.4	43	54.4	4	10	248	0.00	29.805 
14:30	78.5	78.5	79.3	45	55.4	3	10	270	0.00	29.810 
14:35	78.3	78.3	79.1	43	53.9	4	10	248	0.00	29.810 
14:40	78.5	78.5	79.2	43	54.1	4	11	248	0.00	29.810 
14:45	78.8	78.8	79.4	43	54.4	4	12	248	0.00	29.812 
14:50	79.0	79.0	79.4	41	53.3	4	12	270	0.00	29.812 
14:55	79.2	79.2	79.5	42	54.1	4	10	248	0.00	29.812 
15:00	79.4	79.4	79.7	42	54.3	3	10	248	0.00	29.802 
15:05	79.4	79.4	79.7	42	54.3	2	5	248	0.00	29.802 
15:10	79.4	79.4	79.7	42	54.3	4	10	248	0.00	29.802 
15:15	79.4	79.4	79.8	43	54.9	4	10	248	0.00	29.802 
15:20	79.6	79.6	79.8	42	54.5	4	14	248	0.00	29.802 
15:25	79.6	79.6	79.8	42	54.5	4	9	248	0.00	29.802 
15:30	79.6	79.6	79.9	43	55.1	2	6	248	0.00	29.800 
15:35	79.2	79.2	79.7	44	55.4	3	6	248	0.00	29.800 
15:40	79.0	79.0	79.6	44	55.2	3	13	248	0.00	29.800 
15:45	78.8	78.8	79.4	43	54.4	3	10	248	0.00	29.802 
15:50	78.6	78.6	79.3	44	54.8	2	5	248	0.00	29.802 
15:55	78.6	78.6	79.2	43	54.2	4	9	270	0.00	29.802 
16:00	78.3	78.3	79.1	44	54.6	3	9	270	0.00	29.806 
16:05	78.1	78.1	79.0	45	55.0	3	7	248	0.00	29.806 
16:10	77.9	77.9	79.0	46	55.4	3	6	248	0.00	29.806 
16:15	77.6	77.6	78.8	46	55.2	3	9	225	0.00	29.804 
16:20	77.4	77.4	78.7	46	55.0	3	8	270	0.00	29.804 
16:25	77.4	77.4	78.8	48	56.1	2	7	248	0.00	29.804 
16:30	77.2	77.2	78.6	46	54.8	3	12	270	0.00	29.804 
16:35	77.0	77.0	78.5	47	55.2	4	12	248	0.00	29.804 
16:40	76.8	76.8	78.4	48	55.6	3	10	248	0.00	29.804 
16:45	77.0	77.0	78.5	47	55.2	3	9	225	0.00	29.803 
16:50	76.8	76.8	78.4	48	55.6	3	12	248	0.00	29.803 
16:55	76.7	76.7	78.4	47	54.9	3	7	248	0.00	29.803 
17:00	76.5	76.5	78.3	48	55.3	3	6	248	0.00	29.804 
17:05	76.3	76.3	78.2	48	55.1	3	9	248	0.00	29.804 
17:10	76.3	76.3	78.2	48	55.1	2	6	270	0.00	29.804 
17:15	76.3	76.3	78.2	48	55.1	3	7	248	0.00	29.807 
17:20	76.1	76.1	78.1	49	55.5	3	7	248	0.00	29.807 
17:25	76.0	76.0	78.1	49	55.4	3	9	248	0.00	29.807 
17:30	76.0	76.0	78.1	50	56.0	2	5	248	0.00	29.809 
17:35	75.8	75.8	78.0	50	55.8	2	6	225	0.00	29.809 
17:40	75.8	75.8	78.0	50	55.8	2	6	248	0.00	29.809 
17:45	75.4	75.4	77.8	51	56.0	2	6	248	0.00	29.804 
17:50	75.3	75.3	77.7	50	55.4	2	7	248	0.00	29.804 
17:55	75.1	75.1	77.7	50	55.2	2	7	248	0.00	29.804 
18:00	74.9	74.9	74.9	51	55.5	1	5	270	0.00	29.805 
18:05	74.7	74.7	74.7	51	55.4	1	6	270	0.00	29.805 
18:10	74.6	74.6	74.6	51	55.3	1	4	270	0.00	29.805 
18:15	74.4	74.4	74.4	52	55.6	1	5	292	0.00	29.805 
18:20	74.4	74.4	74.4	52	55.6	1	4	248	0.00	29.805 
18:25	74.4	74.4	74.4	52	55.6	1	4	248	0.00	29.805 
18:30	74.4	74.4	74.4	52	55.6	1	4	248	0.00	29.805 
18:35	74.4	74.4	74.4	52	55.6	1	4	270	0.00	29.805 
18:40	74.4	74.4	74.4	52	55.6	1	4	248	0.00	29.805 
18:45	74.6	74.6	74.6	52	55.8	1	5	248	0.00	29.803 
18:50	74.6	74.6	74.6	52	55.8	1	7	90	0.00	29.803 
18:55	74.4	74.4	74.4	52	55.6	1	4	22	0.00	29.803 
19:00	74.4	74.4	74.4	53	56.1	1	4	270	0.00	29.800 
19:05	74.2	74.2	74.2	53	56.0	1	3	112	0.00	29.800 
19:10	74.2	74.2	74.2	53	56.0	1	5	315	0.00	29.800 
19:15	74.0	74.0	74.0	53	55.8	1	4	248	0.00	29.798 
19:20	74.0	74.0	74.0	54	56.3	1	10	90	0.00	29.798 
19:25	73.9	73.9	73.9	53	55.7	1	5	248	0.00	29.798 
19:30	73.9	73.9	73.9	53	55.7	1	3	248	0.00	29.798 
19:35	73.7	73.7	73.7	54	56.0	1	5	248	0.00	29.798 
19:40	73.5	73.5	73.5	54	55.8	1	3	248	0.00	29.798 
19:45	73.3	73.3	73.3	54	55.6	1	4	248	0.00	29.801 
19:50	73.3	73.3	73.3	54	55.6	2	8	248	0.00	29.801 
19:55	73.3	73.3	73.3	54	55.6	2	5	248	0.00	29.801 
20:00	73.3	73.3	73.3	54	55.6	1	4	248	0.00	29.796 
20:05	73.2	73.2	73.2	54	55.5	1	5	270	0.00	29.796 
20:10	73.2	73.2	73.2	54	55.5	1	4	270	0.00	29.796 
20:15	73.0	73.0	73.0	54	55.4	2	6	248	0.00	29.786 
20:20	73.0	73.0	73.0	54	55.4	1	3	270	0.00	29.786 
20:25	72.8	72.8	72.8	55	55.7	1	4	270	0.00	29.786 
20:30	72.5	72.5	72.5	55	55.4	1	3	248	0.00	29.785 
20:35	72.3	72.3	72.3	56	55.7	1	5	248	0.00	29.785 
20:40	72.1	72.1	72.1	56	55.5	1	3	248	0.00	29.785 
20:45	72.0	72.0	72.0	56	55.4	1	5	248	0.00	29.780 
20:50	71.8	71.8	71.8	56	55.2	1	3	270	0.00	29.780 
20:55	71.8	71.8	71.8	56	55.2	1	5	270	0.00	29.780 
21:00	71.8	71.8	71.8	56	55.2	1	5	315	0.00	29.779 
21:05	71.8	71.8	71.8	56	55.2	1	7	248	0.00	29.779 
21:10	71.8	71.8	71.8	56	55.2	1	5	248	0.00	29.779 
21:15	71.8	71.8	71.8	56	55.2	1	3	270	0.00	29.777 
21:20	71.6	71.6	71.6	56	55.1	1	3	270	0.00	29.777 
21:25	71.6	71.6	71.6	56	55.1	1	5	248	0.00	29.777 
21:30	71.5	71.5	71.5	56	55.0	1	9	270	0.00	29.781 
21:35	71.5	71.5	71.5	56	55.0	1	4	248	0.00	29.781 
21:40	71.5	71.5	71.5	56	55.0	2	8	248	0.00	29.781 
21:45	71.6	71.6	71.6	56	55.1	2	7	248	0.00	29.785 
21:50	71.6	71.6	71.6	56	55.1	2	7	248	0.00	29.785 
21:55	71.5	71.5	71.5	56	55.0	1	5	248	0.00	29.785 
22:00	71.3	71.3	71.3	56	54.8	1	5	248	0.00	29.791 
22:05	71.1	71.1	71.1	56	54.6	1	3	248	0.00	29.791 
22:10	71.1	71.1	71.1	56	54.6	1	7	248	0.00	29.791 
22:15	70.9	70.9	70.9	57	54.9	1	4	248	0.00	29.799 
22:20	70.8	70.8	70.8	57	54.8	1	7	248	0.00	29.799 
22:25	70.8	70.8	70.8	57	54.8	2	5	248	0.00	29.799 
22:30	70.6	70.6	70.6	57	54.6	1	4	270	0.00	29.793 
22:35	70.4	70.4	70.4	58	54.9	1	3	248	0.00	29.793 
22:40	70.3	70.3	70.3	58	54.8	1	4	270	0.00	29.793 
22:45	70.3	70.3	70.3	58	54.8	1	5	270	0.00	29.794 
22:50	70.3	70.3	70.3	58	54.8	2	5	270	0.00	29.794 
22:55	70.3	70.3	70.3	58	54.8	1	9	248	0.00	29.794 
23:00	70.3	70.3	70.3	58	54.8	2	6	248	0.00	29.786 
23:05	70.3	70.3	70.3	58	54.8	1	4	248	0.00	29.786 
23:10	70.1	70.1	70.1	58	54.6	1	6	248	0.00	29.786 
23:15	70.1	70.1	70.1	58	54.6	1	3	248	0.00	29.777 
23:20	69.9	69.9	69.9	59	54.9	1	4	338	0.00	29.777 
23:25	69.8	69.8	69.8	59	54.8	1	4	90	0.00	29.777 
23:30	69.6	69.6	69.6	59	54.6	2	6	112	0.00	29.777 
23:35	69.4	69.4	69.4	60	54.9	0	2	112	0.00	29.777 
23:40	69.3	69.3	69.3	60	54.8	1	6	292	0.00	29.777 
23:45	69.1	69.1	69.1	61	55.1	1	5	248	0.00	29.768 
23:50	69.1	69.1	69.1	61	55.1	1	3	315	0.00	29.768 
23:55	68.9	68.9	68.9	61	54.9	1	3	315	0.00	29.768 

CoCoRaHS
IN-AL-39
A2 Web Hosting
Creative Commons License
GoDaddy
search engine by freefind advanced

loaded 2018-11-15 06:02:05 • last modified 2010-11-18 10:43:29
Privacy PolicyDisclaimer
• wx.awcolley.com is powered by PmWiki v.2002016 •
• all content (unless otherwise noted) © 2018 A W Colley